createdAt,value
2022-08-12T00:00:09.234Z,953.1677856
2022-08-12T00:01:10.989Z,953.1606445
2022-08-12T00:02:12.048Z,953.1599731
2022-08-12T00:03:13.208Z,953.1760864
2022-08-12T00:04:13.890Z,953.1775513
2022-08-12T00:05:15.075Z,953.1512451
2022-08-12T00:06:16.434Z,953.1433105
2022-08-12T00:07:17.657Z,953.117981
2022-08-12T00:08:28.943Z,953.1414795
2022-08-12T00:09:24.316Z,953.1118164
2022-08-12T00:10:20.951Z,953.1102905
2022-08-12T00:11:22.192Z,953.1376343
2022-08-12T00:12:23.839Z,953.1063843
2022-08-12T00:13:24.531Z,953.1073608
2022-08-12T00:14:25.759Z,953.1227417
2022-08-12T00:15:27.600Z,953.1425171
2022-08-12T00:16:28.638Z,953.1303101
2022-08-12T00:17:29.374Z,953.1026611
2022-08-12T00:18:31.032Z,953.1105347
2022-08-12T00:19:31.957Z,953.0998535
2022-08-12T00:20:33.698Z,953.1292114
2022-08-12T00:22:05.717Z,953.1185913
2022-08-12T00:23:07.117Z,953.0996704
2022-08-12T00:24:08.044Z,953.0953369
2022-08-12T00:25:09.353Z,953.1212769
2022-08-12T00:26:23.156Z,953.1115723
2022-08-12T00:27:12.395Z,953.0969238
2022-08-12T00:28:14.848Z,953.1055298
2022-08-12T00:29:15.606Z,953.0957642
2022-08-12T00:30:17.546Z,953.1487427
2022-08-12T00:31:19.134Z,953.1174927
2022-08-12T00:32:35.427Z,953.1047363
2022-08-12T00:33:20.680Z,953.0990601
2022-08-12T00:34:21.424Z,953.0974731
2022-08-12T00:35:23.533Z,953.0864868
2022-08-12T00:36:35.204Z,953.0793457
2022-08-12T00:37:24.637Z,953.1177979
2022-08-12T00:38:26.181Z,953.0873413
2022-08-12T00:39:26.871Z,953.0804443
2022-08-12T00:40:27.667Z,953.0783081
2022-08-12T00:41:28.489Z,953.0744629
2022-08-12T00:42:29.172Z,953.0540771
2022-08-12T00:43:29.932Z,953.059082
2022-08-12T00:44:30.657Z,953.0661011
2022-08-12T00:45:31.501Z,953.0901489
2022-08-12T00:46:32.293Z,953.0618896
2022-08-12T00:47:33.044Z,953.0722656
2022-08-12T00:49:04.951Z,953.1073608
2022-08-12T00:50:06.729Z,953.1018066
2022-08-12T00:51:07.511Z,953.0814209
2022-08-12T00:52:08.296Z,953.0482788
2022-08-12T00:53:08.970Z,953.0323486
2022-08-12T00:54:09.732Z,953.0048218
2022-08-12T00:55:11.440Z,953.0211182
2022-08-12T00:56:12.230Z,953.0245361
2022-08-12T00:57:13.010Z,953.0795288
2022-08-12T00:58:14.675Z,953.0435791
2022-08-12T00:59:15.444Z,953.0765381
2022-08-12T01:00:16.197Z,953.0505371
2022-08-12T01:01:17.718Z,953.078125
2022-08-12T01:02:18.428Z,953.0296631
2022-08-12T01:03:19.078Z,953.0582886
2022-08-12T01:04:19.890Z,953.0379639
2022-08-12T01:05:20.645Z,953.0348511
2022-08-12T01:06:21.494Z,953.0925293
2022-08-12T01:07:22.253Z,953.0829468
2022-08-12T01:08:23.526Z,953.0873413
2022-08-12T01:09:24.283Z,953.0778198
2022-08-12T01:10:27.414Z,953.1375122
2022-08-12T01:11:25.873Z,953.1557617
2022-08-12T01:12:26.762Z,953.1339722
2022-08-12T01:13:27.405Z,953.170166
2022-08-12T01:14:28.193Z,953.1727905
2022-08-12T01:15:29.282Z,953.1560059
2022-08-12T01:16:29.887Z,953.1677246
2022-08-12T01:17:30.649Z,953.1400146
2022-08-12T01:18:32.163Z,953.154541
2022-08-12T01:19:32.957Z,953.161377
2022-08-12T01:21:04.474Z,953.109375
2022-08-12T01:22:05.322Z,953.1339722
2022-08-12T01:23:06.070Z,953.1450195
2022-08-12T01:24:29.972Z,953.1472168
2022-08-12T01:25:07.649Z,953.1425781
2022-08-12T01:26:09.181Z,953.1409302
2022-08-12T01:27:10.002Z,953.1517334
2022-08-12T01:28:11.652Z,953.1598511
2022-08-12T01:29:12.354Z,953.1187744
2022-08-12T01:30:13.170Z,953.1326294
2022-08-12T01:31:16.295Z,953.1530762
2022-08-12T01:32:14.717Z,953.1341553
2022-08-12T01:33:15.453Z,953.1020508
2022-08-12T01:34:33.410Z,953.1207886
2022-08-12T01:35:17.987Z,953.1443481
2022-08-12T01:36:18.775Z,953.1065674
2022-08-12T01:37:19.548Z,953.0740356
2022-08-12T01:38:21.150Z,953.1185913
2022-08-12T01:39:21.935Z,953.1199951
2022-08-12T01:40:34.588Z,953.1143799
2022-08-12T01:41:23.493Z,953.1226807
2022-08-12T01:42:24.281Z,953.0828247
2022-08-12T01:43:25.015Z,953.102478
2022-08-12T01:44:25.733Z,953.0890503
2022-08-12T01:45:27.176Z,953.1292114
2022-08-12T01:46:27.960Z,953.1422729
2022-08-12T01:47:28.771Z,953.1518555
2022-08-12T01:48:30.172Z,953.12854
2022-08-12T01:49:30.892Z,953.0847168
2022-08-12T01:50:31.685Z,953.1387329
2022-08-12T01:52:19.817Z,953.1409302
2022-08-12T01:53:04.047Z,953.1376343
2022-08-12T01:54:04.771Z,953.1026611
2022-08-12T01:55:05.461Z,953.1539307
2022-08-12T01:56:07.213Z,953.0901489
2022-08-12T01:57:08.050Z,953.1123657
2022-08-12T01:58:08.907Z,953.0892334
2022-08-12T01:59:12.352Z,953.1022949
2022-08-12T02:00:11.515Z,953.0786133
2022-08-12T02:01:13.272Z,953.0973511
2022-08-12T02:02:14.019Z,953.1009521
2022-08-12T02:03:14.858Z,953.0859375
2022-08-12T02:04:15.602Z,953.0725098
2022-08-12T02:05:16.305Z,953.0990601
2022-08-12T02:06:17.116Z,953.0901489
2022-08-12T02:07:17.901Z,953.0776367
2022-08-12T02:08:19.737Z,953.0596924
2022-08-12T02:09:20.469Z,953.0671997
2022-08-12T02:10:50.290Z,953.0315552
2022-08-12T02:11:21.923Z,953.0117798
2022-08-12T02:12:27.923Z,953.0044556
2022-08-12T02:13:42.115Z,953.0061035
2022-08-12T02:14:24.292Z,952.9806519
2022-08-12T02:15:25.039Z,953.0321655
2022-08-12T02:16:25.758Z,953.0050049
2022-08-12T02:17:55.687Z,953.0250244
2022-08-12T02:18:28.692Z,953.038147
2022-08-12T02:19:29.480Z,952.9921875
2022-08-12T02:20:50.908Z,953.0078125
2022-08-12T02:21:31.045Z,953.0062256
2022-08-12T02:22:31.844Z,953.0318604
2022-08-12T02:23:33.023Z,953.0429688
2022-08-12T02:25:04.197Z,953.0192261
2022-08-12T02:26:05.658Z,953.0470581
2022-08-12T02:27:06.467Z,953.0257568
2022-08-12T02:28:07.973Z,952.9815674
2022-08-12T02:29:08.610Z,952.9567871
2022-08-12T02:30:09.340Z,952.9593506
2022-08-12T02:31:10.022Z,952.8978271
2022-08-12T02:32:10.785Z,952.852478
2022-08-12T02:33:11.632Z,952.8839722
2022-08-12T02:34:12.411Z,952.8726807
2022-08-12T02:35:13.124Z,952.8362427
2022-08-12T02:36:13.763Z,952.8577881
2022-08-12T02:37:14.594Z,952.8495483
2022-08-12T02:38:15.243Z,952.8537598
2022-08-12T02:39:16.616Z,952.8596191
2022-08-12T02:40:17.369Z,952.8792114
2022-08-12T02:41:18.036Z,952.8677979
2022-08-12T02:42:18.742Z,952.8530273
2022-08-12T02:43:19.503Z,952.8647461
2022-08-12T02:44:20.336Z,952.8410645
2022-08-12T02:45:21.054Z,952.7999878
2022-08-12T02:46:21.747Z,952.8106079
2022-08-12T02:47:59.261Z,952.8289185
2022-08-12T02:48:23.180Z,952.7960815
2022-08-12T02:49:24.604Z,952.7746582
2022-08-12T02:50:25.359Z,952.8009644
2022-08-12T02:51:26.027Z,952.7756348
2022-08-12T02:52:26.705Z,952.7952881
2022-08-12T02:53:27.445Z,952.7453003
2022-08-12T02:54:28.220Z,952.8113403
2022-08-12T02:55:34.326Z,952.7745361
2022-08-12T02:56:30.316Z,952.829834
2022-08-12T02:57:31.025Z,952.8117065
2022-08-12T02:58:33.480Z,952.7873535
2022-08-12T03:00:04.210Z,952.7379761
2022-08-12T03:01:04.999Z,952.7531128
2022-08-12T03:02:05.571Z,952.7590332
2022-08-12T03:03:06.247Z,952.7600098
2022-08-12T03:04:06.890Z,952.7709961
2022-08-12T03:05:07.577Z,952.8048706
2022-08-12T03:06:08.257Z,952.8115845
2022-08-12T03:07:09.687Z,952.7516479
2022-08-12T03:08:12.237Z,952.7740479
2022-08-12T03:09:12.032Z,952.7783813
2022-08-12T03:10:15.841Z,952.7191162
2022-08-12T03:11:14.610Z,952.696228
2022-08-12T03:12:20.048Z,952.6964111
2022-08-12T03:13:15.119Z,952.7229614
2022-08-12T03:14:15.788Z,952.6514282
2022-08-12T03:15:16.563Z,952.7026367
2022-08-12T03:16:17.264Z,952.6329956
2022-08-12T03:17:17.906Z,952.6213989
2022-08-12T03:18:26.101Z,952.6968994
2022-08-12T03:19:19.995Z,952.6824341
2022-08-12T03:20:22.649Z,952.6998291
2022-08-12T03:21:54.624Z,952.689209
2022-08-12T03:22:22.257Z,952.6766968
2022-08-12T03:23:30.341Z,952.7016602
2022-08-12T03:24:23.544Z,952.6885986
2022-08-12T03:25:24.307Z,952.644043
2022-08-12T03:26:25.703Z,952.6311035
2022-08-12T03:27:26.409Z,952.6519775
2022-08-12T03:28:27.098Z,952.6501465
2022-08-12T03:29:28.531Z,952.6470337
2022-08-12T03:30:29.184Z,952.6412354
2022-08-12T03:31:29.958Z,952.6213379
2022-08-12T03:32:36.208Z,952.6807251
2022-08-12T03:34:03.235Z,952.6981201
2022-08-12T03:35:04.176Z,952.6687622
2022-08-12T03:36:04.949Z,952.6638184
2022-08-12T03:37:05.698Z,952.6809082
2022-08-12T03:38:08.074Z,952.6819458
2022-08-12T03:39:07.724Z,952.7345581
2022-08-12T03:40:08.459Z,952.7182617
2022-08-12T03:41:09.038Z,952.690918
2022-08-12T03:42:09.754Z,952.7176514
2022-08-12T03:43:11.859Z,952.6821899
2022-08-12T03:44:11.504Z,952.6956177
2022-08-12T03:45:12.180Z,952.7270508
2022-08-12T03:46:12.941Z,952.6771851
2022-08-12T03:47:13.743Z,952.663147
2022-08-12T03:48:18.985Z,952.6624756
2022-08-12T03:49:16.253Z,952.6774902
2022-08-12T03:50:16.946Z,952.6989136
2022-08-12T03:51:17.697Z,952.6869507
2022-08-12T03:52:18.373Z,952.6598511
2022-08-12T03:53:19.077Z,952.664978
2022-08-12T03:54:19.810Z,952.6635132
2022-08-12T03:55:20.465Z,952.6702271
2022-08-12T03:56:21.239Z,952.6884155
2022-08-12T03:57:22.619Z,952.6959229
2022-08-12T03:58:23.359Z,952.6872559
2022-08-12T03:59:25.069Z,952.6479492
2022-08-12T04:00:25.736Z,952.6654053
2022-08-12T04:01:27.623Z,952.6754761
2022-08-12T04:02:27.290Z,952.682373
2022-08-12T04:03:28.727Z,952.7001343
2022-08-12T04:04:29.548Z,952.7109375
2022-08-12T04:05:54.490Z,952.7194824
2022-08-12T04:06:35.509Z,952.748291
2022-08-12T04:08:02.432Z,952.7310791
2022-08-12T04:09:03.661Z,952.7445068
2022-08-12T04:10:04.366Z,952.7630615
2022-08-12T04:11:05.047Z,952.7823486
2022-08-12T04:12:05.815Z,952.742981
2022-08-12T04:13:06.580Z,952.7737427
2022-08-12T04:14:07.309Z,952.78125
2022-08-12T04:15:07.994Z,952.7801514
2022-08-12T04:16:08.650Z,952.8403931
2022-08-12T04:17:09.302Z,952.8157959
2022-08-12T04:18:10.007Z,952.8059082
2022-08-12T04:19:11.705Z,952.8465576
2022-08-12T04:20:12.434Z,952.8449097
2022-08-12T04:21:13.078Z,952.8657837
2022-08-12T04:22:13.790Z,952.8601685
2022-08-12T04:23:16.763Z,952.8303833
2022-08-12T04:24:15.377Z,952.84375
2022-08-12T04:25:16.716Z,952.8209229
2022-08-12T04:26:17.380Z,952.8326416
2022-08-12T04:27:18.082Z,952.8112793
2022-08-12T04:28:18.847Z,952.8152466
2022-08-12T04:29:20.226Z,952.7851563
2022-08-12T04:30:32.593Z,952.7868042
2022-08-12T04:31:21.564Z,952.7619019
2022-08-12T04:32:22.313Z,952.8256226
2022-08-12T04:33:23.093Z,952.8150024
2022-08-12T04:34:23.867Z,952.8106079
2022-08-12T04:35:24.596Z,952.7473145
2022-08-12T04:36:25.272Z,952.7316284
2022-08-12T04:37:25.933Z,952.7578125
2022-08-12T04:38:26.693Z,952.744873
2022-08-12T04:39:28.278Z,952.7554932
2022-08-12T04:40:29.073Z,952.7437744
2022-08-12T04:41:29.875Z,952.7092285
2022-08-12T04:42:30.726Z,952.7329712
2022-08-12T04:44:02.680Z,952.7509155
2022-08-12T04:45:02.804Z,952.7740479
2022-08-12T04:46:03.586Z,952.7406006
2022-08-12T04:47:05.202Z,952.7487793
2022-08-12T04:48:05.909Z,952.7489014
2022-08-12T04:49:06.678Z,952.7396851
2022-08-12T04:50:35.230Z,952.7331543
2022-08-12T04:51:08.947Z,952.7051392
2022-08-12T04:52:09.594Z,952.7203369
2022-08-12T04:53:10.333Z,952.6900024
2022-08-12T04:54:11.137Z,952.7340698
2022-08-12T04:55:12.178Z,952.7020874
2022-08-12T04:56:12.987Z,952.6983032
2022-08-12T04:57:14.195Z,952.7036743
2022-08-12T04:58:15.046Z,952.6741333
2022-08-12T04:59:16.278Z,952.6609497
2022-08-12T05:00:17.072Z,952.6546631
2022-08-12T05:01:17.903Z,952.6439819
2022-08-12T05:02:21.635Z,952.6704712
2022-08-12T05:03:19.253Z,952.6749878
2022-08-12T05:04:19.957Z,952.7318115
2022-08-12T05:05:20.741Z,952.6942749
2022-08-12T05:06:26.878Z,952.6964111
2022-08-12T05:07:22.867Z,952.7042236
2022-08-12T05:08:23.545Z,952.7414551
2022-08-12T05:09:25.239Z,952.7126465
2022-08-12T05:10:33.871Z,952.7270508
2022-08-12T05:11:26.824Z,952.7254639
2022-08-12T05:12:27.605Z,952.7659302
2022-08-12T05:13:28.306Z,952.7719727
2022-08-12T05:14:29.091Z,952.7384644
2022-08-12T05:15:29.842Z,952.7004395
2022-08-12T05:16:34.036Z,952.6734619
2022-08-12T05:18:19.153Z,952.6948242
2022-08-12T05:19:03.617Z,952.7195435
2022-08-12T05:20:05.181Z,952.7789307
2022-08-12T05:21:05.993Z,952.7006226
2022-08-12T05:22:06.776Z,952.7293701
2022-08-12T05:23:12.485Z,952.7334595
2022-08-12T05:24:08.072Z,952.7268677
2022-08-12T05:25:08.867Z,952.765564
2022-08-12T05:26:09.659Z,952.7424927
2022-08-12T05:27:11.476Z,952.7776489
2022-08-12T05:28:12.145Z,952.7908325
2022-08-12T05:30:08.161Z,952.8145142
2022-08-12T05:30:14.133Z,952.8465576
2022-08-12T05:31:14.926Z,952.8259277
2022-08-12T05:32:15.712Z,952.8670044
2022-08-12T05:33:16.357Z,952.8487549
2022-08-12T05:34:17.081Z,952.8674927
2022-08-12T05:35:17.881Z,952.8673706
2022-08-12T05:36:18.705Z,952.8325195
2022-08-12T05:37:20.266Z,952.9009399
2022-08-12T05:38:20.934Z,952.8347168
2022-08-12T05:39:21.813Z,952.8462524
2022-08-12T05:40:23.166Z,952.8913574
2022-08-12T05:41:23.960Z,952.8936157
2022-08-12T05:42:41.104Z,952.9229736
2022-08-12T05:43:25.411Z,952.9707642
2022-08-12T05:44:26.078Z,952.9492798
2022-08-12T05:45:26.905Z,952.9212646
2022-08-12T05:46:27.700Z,952.9073486
2022-08-12T05:47:36.673Z,952.9039307
2022-08-12T05:48:30.056Z,952.9259644
2022-08-12T05:50:01.304Z,952.9160767
2022-08-12T05:51:02.687Z,952.899353
2022-08-12T05:52:03.444Z,952.8789063
2022-08-12T05:53:04.188Z,952.914856
2022-08-12T05:54:04.814Z,952.8869019
2022-08-12T05:55:05.583Z,952.8786011
2022-08-12T05:56:06.401Z,952.8942261
2022-08-12T05:57:07.221Z,952.9316406
2022-08-12T05:58:08.004Z,952.9317017
2022-08-12T05:59:08.676Z,952.9255981
2022-08-12T06:00:10.159Z,952.9470825
2022-08-12T06:02:09.598Z,952.9517212
2022-08-12T06:02:13.614Z,952.9368896
2022-08-12T06:03:13.498Z,952.9573364
2022-08-12T06:04:14.024Z,952.9390869
2022-08-12T06:05:15.256Z,952.9821777
2022-08-12T06:06:16.038Z,953.0198364
2022-08-12T06:08:00.076Z,952.9709473
2022-08-12T06:08:17.511Z,953.0078125
2022-08-12T06:09:18.171Z,953.0685425
2022-08-12T06:10:31.775Z,953.0665894
2022-08-12T06:11:20.430Z,953.0316162
2022-08-12T06:12:21.229Z,953.0588989
2022-08-12T06:13:27.981Z,953.0655518
2022-08-12T06:14:22.664Z,953.0662231
2022-08-12T06:15:23.379Z,953.0873413
2022-08-12T06:16:24.148Z,953.0789795
2022-08-12T06:17:24.934Z,953.0737305
2022-08-12T06:18:29.621Z,953.0900879
2022-08-12T06:20:27.945Z,953.0725098
2022-08-12T06:20:34.421Z,953.0667114
2022-08-12T06:21:28.559Z,953.0680542
2022-08-12T06:22:29.204Z,953.0449219
2022-08-12T06:23:30.574Z,953.0356445
2022-08-12T06:25:01.392Z,952.9827271
2022-08-12T06:26:02.230Z,952.9967041
2022-08-12T06:27:03.003Z,952.994873
2022-08-12T06:28:07.300Z,952.9921875
2022-08-12T06:29:05.460Z,953.0258789
2022-08-12T06:30:12.541Z,952.9785767
2022-08-12T06:31:25.335Z,952.9528198
2022-08-12T06:32:08.352Z,952.9495239
2022-08-12T06:35:25.467Z,952.9395142
2022-08-12T06:35:26.488Z,952.9735718
2022-08-12T06:36:11.500Z,952.9665527
2022-08-12T06:37:12.384Z,952.9729614
2022-08-12T06:38:13.059Z,952.9942017
2022-08-12T06:39:14.695Z,952.9480591
2022-08-12T06:40:15.218Z,952.9849243
2022-08-12T06:41:15.972Z,952.975647
2022-08-12T06:42:32.165Z,952.9465332
2022-08-12T06:43:17.564Z,952.9487305
2022-08-12T06:44:18.359Z,952.956665
2022-08-12T06:45:18.997Z,952.975708
2022-08-12T06:46:19.697Z,952.9473267
2022-08-12T06:47:20.485Z,952.9760742
2022-08-12T06:48:21.268Z,952.9611206
2022-08-12T06:49:22.082Z,952.9328613
2022-08-12T06:50:23.552Z,952.9319458
2022-08-12T06:51:25.061Z,952.9104614
2022-08-12T06:52:25.840Z,952.9165649
2022-08-12T06:53:26.672Z,952.9152832
2022-08-12T06:54:31.087Z,952.9145508
2022-08-12T06:55:28.118Z,952.8329468
2022-08-12T06:56:46.306Z,952.8922119
2022-08-12T06:58:05.311Z,952.885498
2022-08-12T06:59:02.083Z,952.8484497
2022-08-12T07:00:03.787Z,952.9099731
2022-08-12T07:01:04.527Z,952.9224854
2022-08-12T07:02:05.161Z,952.9849854
2022-08-12T07:03:16.438Z,952.9492188
2022-08-12T07:04:35.293Z,952.9708862
2022-08-12T07:05:08.315Z,952.8798218
2022-08-12T07:06:09.006Z,952.8947144
2022-08-12T07:07:10.053Z,952.9384155
2022-08-12T07:08:10.576Z,952.8945313
2022-08-12T07:09:15.895Z,952.9151611
2022-08-12T07:10:13.281Z,952.9032593
2022-08-12T07:11:14.030Z,952.9320068
2022-08-12T07:12:14.671Z,952.9013062
2022-08-12T07:13:15.454Z,952.8897705
2022-08-12T07:14:16.237Z,952.9249878
2022-08-12T07:15:17.043Z,952.8730469
2022-08-12T07:16:17.691Z,952.8778076
2022-08-12T07:17:18.368Z,952.8570557
2022-08-12T07:18:19.143Z,952.855957
2022-08-12T07:19:19.953Z,952.875
2022-08-12T07:20:50.274Z,952.9135742
2022-08-12T07:21:21.953Z,952.8861694
2022-08-12T07:22:22.639Z,952.9075928
2022-08-12T07:23:23.398Z,952.9517822
2022-08-12T07:24:24.174Z,952.8881836
2022-08-12T07:25:24.975Z,952.9213867
2022-08-12T07:26:25.650Z,952.9418945
2022-08-12T07:27:26.361Z,952.9336548
2022-08-12T07:28:27.788Z,952.9387207
2022-08-12T07:30:03.576Z,952.9431152
2022-08-12T07:30:30.810Z,952.9820557
2022-08-12T07:32:01.865Z,952.9732056
2022-08-12T07:33:02.576Z,952.9715576
2022-08-12T07:34:03.416Z,952.9350586
2022-08-12T07:35:04.683Z,952.9525146
2022-08-12T07:36:05.496Z,952.951416
2022-08-12T07:37:06.204Z,952.9455566
2022-08-12T07:38:06.924Z,952.944458
2022-08-12T07:39:07.714Z,952.94104
2022-08-12T07:40:08.529Z,952.9056396
2022-08-12T07:41:15.687Z,952.8724365
2022-08-12T07:42:10.904Z,952.8911133
2022-08-12T07:43:11.667Z,952.8918457
2022-08-12T07:44:12.438Z,952.9206543
2022-08-12T07:45:13.234Z,952.8998413
2022-08-12T07:46:14.015Z,952.8883667
2022-08-12T07:47:14.713Z,952.9393921
2022-08-12T07:48:15.453Z,952.8903809
2022-08-12T07:49:16.144Z,952.9090576
2022-08-12T07:50:21.491Z,952.8922729
2022-08-12T07:51:25.152Z,952.9003296
2022-08-12T07:52:19.392Z,952.8718872
2022-08-12T07:53:20.125Z,952.8806763
2022-08-12T07:54:20.822Z,952.8586426
2022-08-12T07:55:21.638Z,952.9143677
2022-08-12T07:56:22.473Z,952.8431396
2022-08-12T07:57:23.216Z,952.8406982
2022-08-12T07:58:24.588Z,952.861084
2022-08-12T07:59:25.283Z,952.8471069
2022-08-12T08:00:26.779Z,952.8856201
2022-08-12T08:01:27.657Z,952.8725586
2022-08-12T08:02:28.334Z,952.8468628
2022-08-12T08:03:29.440Z,952.8757935
2022-08-12T08:05:00.619Z,952.8510742
2022-08-12T08:06:01.354Z,952.8721924
2022-08-12T08:07:02.207Z,952.822998
2022-08-12T08:08:03.008Z,952.812561
2022-08-12T08:09:03.690Z,952.7993774
2022-08-12T08:10:04.475Z,952.7862549
2022-08-12T08:11:06.187Z,952.7823486
2022-08-12T08:12:07.082Z,952.7438965
2022-08-12T08:13:07.828Z,952.7631226
2022-08-12T08:14:08.494Z,952.796875
2022-08-12T08:15:09.220Z,952.7598267
2022-08-12T08:16:10.026Z,952.7493896
2022-08-12T08:17:10.853Z,952.7427979
2022-08-12T08:18:13.232Z,952.7706299
2022-08-12T08:19:12.337Z,952.7910767
2022-08-12T08:20:13.016Z,952.7959595
2022-08-12T08:21:14.654Z,952.7717285
2022-08-12T08:22:15.463Z,952.8031006
2022-08-12T08:23:16.327Z,952.7879639
2022-08-12T08:24:17.599Z,952.8283691
2022-08-12T08:25:20.461Z,952.8267212
2022-08-12T08:26:19.071Z,952.8573608
2022-08-12T08:27:19.882Z,952.8331299
2022-08-12T08:28:21.271Z,952.829834
2022-08-12T08:29:21.966Z,952.8215332
2022-08-12T08:30:22.627Z,952.7901611
2022-08-12T08:31:24.180Z,952.7564087
2022-08-12T08:32:24.990Z,952.7910767
2022-08-12T08:34:09.533Z,952.7711182
2022-08-12T08:34:49.288Z,952.7651367
2022-08-12T08:35:38.779Z,952.7945557
2022-08-12T08:36:59.746Z,952.796875
2022-08-12T08:38:00.558Z,952.798584
2022-08-12T08:39:02.261Z,952.8364868
2022-08-12T08:40:02.840Z,952.8032837
2022-08-12T08:41:04.171Z,952.7890625
2022-08-12T08:42:19.375Z,952.8045044
2022-08-12T08:43:05.830Z,952.7764282
2022-08-12T08:44:06.460Z,952.7532959
2022-08-12T08:45:07.126Z,952.7561646
2022-08-12T08:46:07.818Z,952.7966919
2022-08-12T08:47:08.596Z,952.8087769
2022-08-12T08:48:09.418Z,952.7810669
2022-08-12T08:49:10.113Z,952.8353271
2022-08-12T08:50:11.747Z,952.772644
2022-08-12T08:51:13.317Z,952.7687378
2022-08-12T08:52:39.668Z,952.8040771
2022-08-12T08:53:14.899Z,952.7365723
2022-08-12T08:54:15.523Z,952.7097168
2022-08-12T08:55:19.704Z,952.7249146
2022-08-12T08:56:16.877Z,952.7505493
2022-08-12T08:57:18.249Z,952.7405396
2022-08-12T08:58:18.939Z,952.6618652
2022-08-12T08:59:19.606Z,952.7184448
2022-08-12T09:00:20.280Z,952.7224731
2022-08-12T09:01:21.753Z,952.7437744
2022-08-12T09:02:22.419Z,952.6907959
2022-08-12T09:04:21.322Z,952.6956787
2022-08-12T09:05:13.106Z,952.6102905
2022-08-12T09:05:25.820Z,952.6398315
2022-08-12T09:07:51.023Z,952.616272
2022-08-12T09:08:26.802Z,952.6184082
2022-08-12T09:10:31.236Z,952.6585083
2022-08-12T09:12:10.866Z,952.6505737
2022-08-12T09:13:00.860Z,952.6345215
2022-08-12T09:14:11.931Z,952.6465454
2022-08-12T09:15:01.518Z,952.6553345
2022-08-12T09:16:02.229Z,952.6420288
2022-08-12T09:17:02.916Z,952.6720581
2022-08-12T09:18:03.645Z,952.6122437
2022-08-12T09:19:04.390Z,952.6490479
2022-08-12T09:20:05.066Z,952.6800537
2022-08-12T09:21:06.756Z,952.6932983
2022-08-12T09:22:07.474Z,952.6029663
2022-08-12T09:24:10.452Z,952.5759277
2022-08-12T09:25:09.580Z,952.5995483
2022-08-12T09:26:11.231Z,952.5275269
2022-08-12T09:27:12.174Z,952.5222778
2022-08-12T09:28:12.739Z,952.5583496
2022-08-12T09:29:13.462Z,952.5750122
2022-08-12T09:30:14.371Z,952.524353
2022-08-12T09:32:04.310Z,952.5593872
2022-08-12T09:32:56.635Z,952.5274048
2022-08-12T09:33:18.996Z,952.5550537
2022-08-12T09:34:31.065Z,952.538147
2022-08-12T09:35:22.301Z,952.5765381
2022-08-12T09:36:30.995Z,952.4976807
2022-08-12T09:37:22.366Z,952.461731
2022-08-12T09:38:20.972Z,952.5083618
2022-08-12T09:40:03.475Z,952.4196777
2022-08-12T09:41:02.537Z,952.4176636
2022-08-12T09:42:09.826Z,952.3815918
2022-08-12T09:42:34.387Z,952.3685913
2022-08-12T09:43:26.313Z,952.3757324
2022-08-12T09:44:39.579Z,952.3415527
2022-08-12T09:46:20.283Z,952.3340454
2022-08-12T09:46:58.742Z,952.3018799
2022-08-12T09:48:00.302Z,952.307373
2022-08-12T09:49:00.169Z,952.3001709
2022-08-12T09:50:00.863Z,952.2870483
2022-08-12T09:51:02.265Z,952.2631226
2022-08-12T09:52:03.000Z,952.2867432
2022-08-12T09:53:04.184Z,952.3186035
2022-08-12T09:54:08.966Z,952.2567139
2022-08-12T09:55:05.003Z,952.3041382
2022-08-12T09:56:58.850Z,952.3634644
2022-08-12T09:58:07.406Z,952.3620605
2022-08-12T09:58:57.395Z,952.2980957
2022-08-12T09:59:08.719Z,952.3110962
2022-08-12T10:00:13.525Z,952.3387451
2022-08-12T10:01:15.286Z,952.3051758
2022-08-12T10:02:45.267Z,952.2890625
2022-08-12T10:03:31.481Z,952.2959595
2022-08-12T10:04:14.037Z,952.2681885
2022-08-12T10:05:17.832Z,952.2843628
2022-08-12T10:06:27.638Z,952.2697144
2022-08-12T10:07:24.937Z,952.2625122
2022-08-12T10:08:16.739Z,952.2206421
2022-08-12T10:09:17.430Z,952.2910156
2022-08-12T10:10:22.916Z,952.1994019
2022-08-12T10:11:20.360Z,952.2319336
2022-08-12T10:12:31.153Z,952.2131958
2022-08-12T10:13:34.441Z,952.2020874
2022-08-12T10:14:21.963Z,952.2062378
2022-08-12T10:16:01.622Z,952.2396851
2022-08-12T10:16:23.923Z,952.2142944
2022-08-12T10:17:24.584Z,952.2338867
2022-08-12T10:18:26.447Z,952.1783447
2022-08-12T10:19:36.181Z,952.2111206
2022-08-12T10:20:26.573Z,952.1925049
2022-08-12T10:21:35.455Z,952.2427979
2022-08-12T10:22:58.758Z,952.2097168
2022-08-12T10:23:59.442Z,952.1707764
2022-08-12T10:25:00.130Z,952.1964111
2022-08-12T10:26:35.823Z,952.1620483
2022-08-12T10:27:05.996Z,952.2157593
2022-08-12T10:28:04.232Z,952.1983032
2022-08-12T10:30:01.667Z,952.2109375
2022-08-12T10:30:40.260Z,952.2130737
2022-08-12T10:31:05.807Z,952.1942139
2022-08-12T10:32:21.408Z,952.1986084
2022-08-12T10:33:18.215Z,952.1733398
2022-08-12T10:34:23.343Z,952.0643921
2022-08-12T10:35:09.171Z,952.1557617
2022-08-12T10:36:10.627Z,952.1745605
2022-08-12T10:37:23.681Z,952.1218872
2022-08-12T10:38:35.547Z,952.156311
2022-08-12T10:40:00.095Z,952.1496582
2022-08-12T10:40:19.863Z,952.1104736
2022-08-12T10:41:19.036Z,952.1121826
2022-08-12T10:42:16.631Z,952.1033325
2022-08-12T10:43:17.291Z,952.088623
2022-08-12T10:44:17.916Z,952.0731201
2022-08-12T10:45:18.561Z,952.100708
2022-08-12T10:46:19.297Z,952.1000977
2022-08-12T10:47:26.241Z,952.0713501
2022-08-12T10:48:26.975Z,952.0267334
2022-08-12T10:50:03.009Z,952.050415
2022-08-12T10:50:35.813Z,952.0999146
2022-08-12T10:52:04.328Z,952.0275269
2022-08-12T10:52:34.807Z,952.0640869
2022-08-12T10:53:44.242Z,952.0793457
2022-08-12T10:54:26.997Z,952.0726318
2022-08-12T10:55:27.481Z,952.0454712
2022-08-12T10:56:58.439Z,952.0201416
2022-08-12T10:58:15.094Z,951.9994507
2022-08-12T10:58:59.712Z,951.9570313
2022-08-12T11:00:31.262Z,951.946106
2022-08-12T11:01:48.832Z,951.914978
2022-08-12T11:04:19.435Z,951.9570313
2022-08-12T11:04:26.006Z,951.9336548
2022-08-12T11:04:27.797Z,951.9564209
2022-08-12T11:07:06.648Z,951.9053345
2022-08-12T11:07:09.834Z,951.888916
2022-08-12T11:08:33.822Z,951.8301392
2022-08-12T11:08:37.189Z,951.8721313
2022-08-12T11:09:11.366Z,951.8803101
2022-08-12T11:10:08.992Z,951.8396606
2022-08-12T11:11:13.946Z,951.8312378
2022-08-12T11:12:56.078Z,951.850708